Time;durP1;ratioP1;P1;durP2;ratioP2;P2;SDS_P1;SDS_P2;PMS_P1;PMS_P2;Temp;Humidity;BMP_temperature;BMP_pressure;BME280_temperature;BME280_humidity;BME280_pressure;Samples;Min_cycle;Max_cycle;Signal;HPM_P1;HPM_P2
2022/06/01 00:02:21;;;;;;;;;19.75;17.00;25.80;99.90;;;;;;5039063;28;8804;-67
2022/06/01 00:04:48;;;;;;;;;29.25;25.50;25.80;99.90;;;;;;5021768;28;8956;-68
2022/06/01 00:07:15;;;;;;;;;27.50;23.75;25.70;99.90;;;;;;5039735;28;8734;-68
2022/06/01 00:09:41;;;;;;;;;28.80;27.80;25.70;99.90;;;;;;5038683;28;8769;-68
2022/06/01 00:12:11;;;;;;;;;29.80;24.40;25.70;99.90;;;;;;5038879;28;8823;-68
2022/06/01 00:14:38;;;;;;;;;32.60;28.60;25.70;99.90;;;;;;5038389;28;8789;-68
2022/06/01 00:17:05;;;;;;;;;21.75;20.25;25.70;99.90;;;;;;5038478;28;8765;-68
2022/06/01 00:19:31;;;;;;;;;33.75;31.00;25.80;99.90;;;;;;5038536;28;8792;-67
2022/06/01 00:22:14;;;;;;;;;38.75;27.75;25.80;99.90;;;;;;5039382;28;8867;-67
2022/06/01 00:24:45;;;;;;;;;27.75;26.00;25.80;99.90;;;;;;5038382;28;9237;-68
2022/06/01 00:27:12;;;;;;;;;40.50;34.00;25.90;99.90;;;;;;5038417;28;9489;-68
2022/06/01 00:29:39;;;;;;;;;19.25;18.25;25.90;99.90;;;;;;5038301;28;8792;-68
2022/06/01 00:32:07;;;;;;;;;25.40;20.60;25.90;99.90;;;;;;5020901;28;8760;-67
2022/06/01 00:34:34;;;;;;;;;26.00;24.75;26.00;99.90;;;;;;5020550;28;9446;-68
2022/06/01 00:37:00;;;;;;;;;25.75;22.50;26.00;99.90;;;;;;5038606;28;8773;-67
2022/06/01 00:39:27;;;;;;;;;18.20;18.20;26.00;99.90;;;;;;5037917;28;8808;-67
2022/06/01 00:41:54;;;;;;;;;25.75;21.50;26.00;99.90;;;;;;5038429;28;8760;-68
2022/06/01 00:44:21;;;;;;;;;24.80;19.20;26.20;99.90;;;;;;5019975;28;8799;-67
2022/06/01 00:46:47;;;;;;;;;22.50;20.00;26.20;99.90;;;;;;5037040;28;8765;-68
2022/06/01 00:49:17;;;;;;;;;18.50;16.75;26.20;99.90;;;;;;5004670;28;8788;-68
2022/06/01 00:51:44;;;;;;;;;23.40;20.20;26.20;99.90;;;;;;5020457;28;8765;-67
2022/06/01 00:54:11;;;;;;;;;25.00;22.00;26.20;99.90;;;;;;5019085;28;8781;-68
2022/06/01 00:56:53;;;;;;;;;22.50;21.75;26.20;99.90;;;;;;5019307;28;8781;-67
2022/06/01 00:59:21;;;;;;;;;27.40;22.80;26.20;99.90;;;;;;5020374;28;8864;-67
2022/06/01 01:01:49;;;;;;;;;27.80;21.20;26.20;99.90;;;;;;5020654;28;8784;-68
2022/06/01 01:04:15;;;;;;;;;19.60;16.40;26.30;99.90;;;;;;5020867;28;8765;-67
2022/06/01 01:06:44;;;;;;;;;23.60;19.00;26.30;99.90;;;;;;5020624;28;8772;-67
2022/06/01 01:09:11;;;;;;;;;27.50;20.00;26.40;99.90;;;;;;5038290;28;8760;-68
2022/06/01 01:11:51;;;;;;;;;22.50;20.50;26.40;99.90;;;;;;5036378;28;8780;-67
2022/06/01 01:14:20;;;;;;;;;24.40;21.00;26.40;99.90;;;;;;5019743;28;8764;-64
2022/06/01 01:16:50;;;;;;;;;20.40;20.20;26.30;99.90;;;;;;5037592;28;8765;-67
2022/06/01 01:19:23;;;;;;;;;22.40;19.60;26.30;99.90;;;;;;5004487;28;9459;-67
2022/06/01 01:22:09;;;;;;;;;25.75;21.25;26.30;99.90;;;;;;5036832;28;8766;-67
2022/06/01 01:25:04;;;;;;;;;21.40;20.40;26.30;99.90;;;;;;5019225;28;8789;-67
2022/06/01 01:27:31;;;;;;;;;25.40;21.00;26.30;99.90;;;;;;5022023;28;8769;-67
2022/06/01 01:29:58;;;;;;;;;21.00;18.00;26.40;99.90;;;;;;5036228;28;8761;-67
2022/06/01 01:32:25;;;;;;;;;28.00;25.25;26.30;99.90;;;;;;5003039;28;8788;-67
2022/06/01 01:34:51;;;;;;;;;24.00;22.50;26.40;99.90;;;;;;5035931;28;8768;-67
2022/06/01 01:37:23;;;;;;;;;26.20;22.40;26.30;99.90;;;;;;5037032;28;8773;-66
2022/06/01 01:39:50;;;;;;;;;29.00;25.50;26.30;99.90;;;;;;5036862;28;8771;-67
2022/06/01 01:42:19;;;;;;;;;29.50;18.00;26.30;99.90;;;;;;5001985;28;8785;-67
2022/06/01 01:44:54;;;;;;;;;26.33;24.00;26.30;99.90;;;;;;5019395;28;8776;-67
2022/06/01 01:47:23;;;;;;;;;25.75;22.00;26.40;99.90;;;;;;5019048;28;8765;-67
2022/06/01 01:49:49;;;;;;;;;25.25;23.50;26.40;99.90;;;;;;5036449;28;8777;-67
2022/06/01 01:52:18;;;;;;;;;29.00;25.00;26.40;99.90;;;;;;5037635;28;8856;-68
2022/06/01 01:55:00;;;;;;;;;24.50;23.25;26.40;99.90;;;;;;5002197;28;8749;-67
2022/06/01 01:57:45;;;;;;;;;26.50;21.75;26.40;99.90;;;;;;5015523;28;8759;-67
2022/06/01 02:00:17;;;;;;;;;29.50;24.75;26.50;99.90;;;;;;5016873;28;8783;-68
2022/06/01 02:03:20;;;;;;;;;24.50;22.25;26.60;99.90;;;;;;5016886;28;8862;-67
2022/06/01 02:06:04;;;;;;;;;27.75;25.25;26.60;99.90;;;;;;5017281;28;8898;-67
2022/06/01 02:08:41;;;;;;;;;28.00;22.75;26.70;99.90;;;;;;5015966;28;8940;-67
2022/06/01 02:13:55;;;;;;;;;25.00;21.00;26.90;99.90;;;;;;5018420;28;8777;-67
2022/06/01 02:16:24;;;;;;;;;24.80;23.00;27.10;99.90;;;;;;5034925;28;8745;-67
2022/06/01 02:18:51;;;;;;;;;25.75;23.75;27.10;99.90;;;;;;5036446;28;8725;-67
2022/06/01 02:21:20;;;;;;;;;26.00;23.50;27.20;99.90;;;;;;5034209;28;8815;-63
2022/06/01 02:23:47;;;;;;;;;24.00;22.50;27.20;99.90;;;;;;5017627;28;8875;-68
2022/06/01 02:26:14;;;;;;;;;20.80;18.60;27.30;99.90;;;;;;5036475;28;8780;-68
2022/06/01 02:28:43;;;;;;;;;23.25;23.25;27.30;99.90;;;;;;5033580;28;8745;-67
2022/06/01 02:31:10;;;;;;;;;22.50;18.75;27.40;99.90;;;;;;5019056;28;8768;-67
2022/06/01 02:33:37;;;;;;;;;27.20;20.80;27.60;99.90;;;;;;5002643;28;8923;-67
2022/06/01 02:36:05;;;;;;;;;29.00;24.00;27.50;99.90;;;;;;5002278;28;8804;-67
2022/06/01 02:38:39;;;;;;;;;28.00;23.50;27.50;99.90;;;;;;5002146;28;8761;-67
2022/06/01 02:41:06;;;;;;;;;23.00;19.75;27.40;99.90;;;;;;5035854;28;8777;-67
2022/06/01 02:43:49;;;;;;;;;27.75;18.00;27.40;99.90;;;;;;5035787;28;8778;-67
2022/06/01 02:46:16;;;;;;;;;22.50;19.25;27.30;99.90;;;;;;5035692;28;8860;-67
2022/06/01 02:48:43;;;;;;;;;24.75;21.00;27.30;99.90;;;;;;5034869;28;8761;-67
2022/06/01 02:51:10;;;;;;;;;22.75;19.50;27.30;99.90;;;;;;5035580;28;8780;-67
2022/06/01 02:53:37;;;;;;;;;23.50;20.50;27.30;99.90;;;;;;5034571;28;8796;-67
2022/06/01 02:56:05;;;;;;;;;56.25;41.75;27.40;99.90;;;;;;5034549;28;8753;-67
2022/06/01 02:58:34;;;;;;;;;22.80;19.20;27.70;99.90;;;;;;5034915;28;8761;-67
2022/06/01 03:01:01;;;;;;;;;22.80;16.80;27.70;99.90;;;;;;5036565;28;9522;-67
2022/06/01 03:03:28;;;;;;;;;22.75;19.75;27.70;99.90;;;;;;5018341;28;8832;-67
2022/06/01 03:05:55;;;;;;;;;19.80;15.00;27.70;99.90;;;;;;5035368;28;9421;-67
2022/06/01 03:08:21;;;;;;;;;16.75;16.00;27.80;99.90;;;;;;5017763;28;8803;-67
2022/06/01 03:10:48;;;;;;;;;23.00;21.25;27.70;99.90;;;;;;5018128;28;8757;-67
2022/06/01 03:13:15;;;;;;;;;20.75;19.75;27.90;99.90;;;;;;5036121;28;8781;-67
2022/06/01 03:15:42;;;;;;;;;23.25;21.50;27.70;99.90;;;;;;5034819;28;9393;-67
2022/06/01 03:18:09;;;;;;;;;22.00;19.25;27.70;99.90;;;;;;5036138;28;8756;-67
2022/06/01 03:20:38;;;;;;;;;13.40;12.40;27.70;99.90;;;;;;5036432;28;8883;-67
2022/06/01 03:23:05;;;;;;;;;20.00;19.60;27.80;99.90;;;;;;5022677;28;8831;-67
2022/06/01 03:25:32;;;;;;;;;17.20;15.80;27.90;99.90;;;;;;5039365;28;8726;-67
2022/06/01 03:27:59;;;;;;;;;19.80;18.60;28.00;99.90;;;;;;5039702;28;8765;-67
2022/06/01 03:30:26;;;;;;;;;23.00;21.00;27.90;99.90;;;;;;5037030;28;8749;-67
2022/06/01 03:32:53;;;;;;;;;27.60;22.60;28.10;99.90;;;;;;5039637;28;8749;-67
2022/06/01 03:35:22;;;;;;;;;25.75;22.00;28.20;99.90;;;;;;5039037;28;8757;-66
2022/06/01 03:37:49;;;;;;;;;23.50;22.25;28.20;99.90;;;;;;5005242;28;9421;-67
2022/06/01 03:40:17;;;;;;;;;24.50;23.75;28.10;99.90;;;;;;5022733;28;8730;-67
2022/06/01 03:42:43;;;;;;;;;25.00;21.00;28.10;99.90;;;;;;5020858;28;8900;-67
2022/06/01 03:47:55;;;;;;;;;25.20;21.60;28.20;99.90;;;;;;5039150;28;9394;-66
2022/06/01 03:50:23;;;;;;;;;22.80;18.20;28.10;99.90;;;;;;5037868;28;8769;-67
2022/06/01 03:52:50;;;;;;;;;28.00;24.00;28.10;99.90;;;;;;5038853;28;8896;-67
2022/06/01 03:55:17;;;;;;;;;23.00;22.00;28.30;99.90;;;;;;5038395;28;8725;-67
2022/06/01 03:57:44;;;;;;;;;28.50;20.75;28.30;99.90;;;;;;5036911;28;8762;-66
2022/06/01 04:00:13;;;;;;;;;22.20;18.40;28.30;99.90;;;;;;5039565;28;9163;-68
2022/06/01 04:02:41;;;;;;;;;16.20;14.60;28.30;99.90;;;;;;5037865;28;8791;-66
2022/06/01 04:05:08;;;;;;;;;19.20;16.60;28.30;99.90;;;;;;5021184;28;8801;-67
2022/06/01 04:07:35;;;;;;;;;20.60;18.80;28.30;99.90;;;;;;5037968;28;8810;-67
2022/06/01 04:10:03;;;;;;;;;22.00;17.67;28.30;99.90;;;;;;5037725;28;8729;-67
2022/06/01 04:12:29;;;;;;;;;24.80;19.80;28.40;99.90;;;;;;5000666;28;8771;-67
2022/06/01 04:14:56;;;;;;;;;23.25;20.50;28.40;99.90;;;;;;5001280;28;9420;-67
2022/06/01 04:17:23;;;;;;;;;20.00;18.50;28.40;99.90;;;;;;5018501;28;8770;-67
2022/06/01 04:19:52;;;;;;;;;23.80;17.80;28.40;99.90;;;;;;5018303;28;8747;-67
2022/06/01 04:22:19;;;;;;;;;18.40;18.40;28.50;99.90;;;;;;5019098;28;8755;-66
2022/06/01 04:24:46;;;;;;;;;24.25;20.50;28.50;99.90;;;;;;5000958;28;8885;-67
2022/06/01 04:27:13;;;;;;;;;26.20;19.80;28.50;99.90;;;;;;5020761;28;8905;-67
2022/06/01 04:29:40;;;;;;;;;21.80;20.40;28.50;99.90;;;;;;5020544;28;8831;-67
2022/06/01 04:32:12;;;;;;;;;15.60;15.00;28.60;99.90;;;;;;5037199;28;8799;-67
2022/06/01 04:34:39;;;;;;;;;20.00;18.20;28.60;99.90;;;;;;5037650;28;8733;-67
2022/06/01 04:37:06;;;;;;;;;20.75;20.50;28.70;99.90;;;;;;5038188;28;9561;-67
2022/06/01 04:39:33;;;;;;;;;26.80;19.40;28.70;99.90;;;;;;5020476;28;8975;-67
2022/06/01 04:42:00;;;;;;;;;19.20;17.00;28.60;99.90;;;;;;5038183;28;8783;-67
2022/06/01 04:44:27;;;;;;;;;24.40;19.80;28.70;99.90;;;;;;5036687;28;8792;-67
2022/06/01 04:46:53;;;;;;;;;20.80;18.80;28.80;99.90;;;;;;5037975;28;8753;-67
2022/06/01 04:49:20;;;;;;;;;13.20;11.40;28.90;99.90;;;;;;5038099;28;8808;-67
2022/06/01 04:51:47;;;;;;;;;20.80;18.20;29.00;99.90;;;;;;5037794;28;8788;-67
2022/06/01 04:54:13;;;;;;;;;24.60;19.20;28.90;99.90;;;;;;5038832;28;8769;-67
2022/06/01 04:56:40;;;;;;;;;20.00;16.40;29.00;99.90;;;;;;5020428;28;8761;-67
2022/06/01 04:59:07;;;;;;;;;19.20;17.80;28.90;99.90;;;;;;5037657;28;8769;-67
2022/06/01 05:01:34;;;;;;;;;21.00;17.20;29.00;99.90;;;;;;5037147;28;8783;-67
2022/06/01 05:04:00;;;;;;;;;17.00;15.00;28.90;99.90;;;;;;5038479;28;8785;-67
2022/06/01 05:06:27;;;;;;;;;17.00;14.00;28.90;99.90;;;;;;5003675;28;8799;-67
2022/06/01 05:08:54;;;;;;;;;20.40;16.80;29.10;99.90;;;;;;5020400;28;8791;-67
2022/06/01 05:11:20;;;;;;;;;22.20;19.20;29.00;99.90;;;;;;5019137;28;8746;-66
2022/06/01 05:13:48;;;;;;;;;22.00;18.60;29.10;99.90;;;;;;5037006;28;8757;-67
2022/06/01 05:16:14;;;;;;;;;26.25;21.75;29.10;99.90;;;;;;5038184;28;8757;-67
2022/06/01 05:18:41;;;;;;;;;17.40;12.20;29.20;99.90;;;;;;5037032;28;8787;-67
2022/06/01 05:21:08;;;;;;;;;19.80;15.00;29.40;99.90;;;;;;5037253;28;8960;-67
2022/06/01 05:23:35;;;;;;;;;17.00;15.80;29.30;99.90;;;;;;5036631;28;8785;-68
2022/06/01 05:26:04;;;;;;;;;18.75;16.00;29.30;99.90;;;;;;5004094;28;8765;-67
2022/06/01 05:28:31;;;;;;;;;16.20;14.80;29.30;99.90;;;;;;5035049;28;8765;-66
2022/06/01 05:30:59;;;;;;;;;15.20;12.20;29.20;99.90;;;;;;5019866;28;8733;-67
2022/06/01 05:33:28;;;;;;;;;14.00;13.20;29.10;99.90;;;;;;5019421;28;8760;-66
2022/06/01 05:35:54;;;;;;;;;21.40;15.00;29.10;99.90;;;;;;5037058;28;8766;-67
2022/06/01 05:38:21;;;;;;;;;20.60;14.60;29.30;99.90;;;;;;5036838;28;8852;-66
2022/06/01 05:40:48;;;;;;;;;20.80;17.60;29.30;99.90;;;;;;5037076;28;8788;-67
2022/06/01 05:43:15;;;;;;;;;20.80;18.00;29.40;99.90;;;;;;5036834;28;8781;-67
2022/06/01 05:45:42;;;;;;;;;16.40;13.40;29.40;99.90;;;;;;5019083;28;9429;-67
2022/06/01 05:48:10;;;;;;;;;21.80;16.40;29.50;99.90;;;;;;5035924;28;9401;-67
2022/06/01 05:50:37;;;;;;;;;17.00;14.60;29.60;99.90;;;;;;5036244;28;8907;-67
2022/06/01 05:53:04;;;;;;;;;17.80;16.60;29.80;99.90;;;;;;5037316;28;8776;-67
2022/06/01 05:55:30;;;;;;;;;15.40;15.40;29.90;99.90;;;;;;5036735;28;8729;-67
2022/06/01 05:57:57;;;;;;;;;18.00;15.40;29.70;99.90;;;;;;4999782;28;8743;-68
2022/06/01 06:00:24;;;;;;;;;14.20;13.00;29.70;99.90;;;;;;4999417;28;9454;-67
2022/06/01 06:02:51;;;;;;;;;17.00;15.20;29.90;99.90;;;;;;4999405;28;8802;-67
2022/06/01 06:08:02;;;;;;;;;15.00;12.20;29.90;99.90;;;;;;5001615;28;8889;-67
2022/06/01 06:10:29;;;;;;;;;12.00;7.20;29.80;99.90;;;;;;4998549;28;8985;-67
2022/06/01 06:12:57;;;;;;;;;14.60;11.00;29.70;99.90;;;;;;5017061;28;8759;-67
2022/06/01 06:15:24;;;;;;;;;16.60;13.60;29.70;99.90;;;;;;5016564;28;8746;-67
2022/06/01 06:17:51;;;;;;;;;16.00;13.40;29.80;99.90;;;;;;5031703;28;8767;-67
2022/06/01 06:20:17;;;;;;;;;13.00;7.60;29.90;99.90;;;;;;5016927;28;9029;-66
2022/06/01 06:22:44;;;;;;;;;15.00;13.00;30.00;99.90;;;;;;5016682;28;8775;-67
2022/06/01 06:25:11;;;;;;;;;12.80;12.80;29.90;99.90;;;;;;5017237;28;8751;-67
2022/06/01 06:27:37;;;;;;;;;13.40;12.40;29.90;99.90;;;;;;5021749;28;8791;-67
2022/06/01 06:30:05;;;;;;;;;11.00;10.00;30.10;99.90;;;;;;5036473;28;8761;-67
2022/06/01 06:32:32;;;;;;;;;14.20;12.60;30.10;99.90;;;;;;5018428;28;8758;-67
2022/06/01 06:34:58;;;;;;;;;15.40;14.80;29.90;99.90;;;;;;5036757;28;8744;-67
2022/06/01 06:37:25;;;;;;;;;17.40;13.20;30.00;99.90;;;;;;5035863;28;8726;-65
2022/06/01 06:39:52;;;;;;;;;15.60;14.00;30.00;99.90;;;;;;5036782;28;9452;-67
2022/06/01 06:42:18;;;;;;;;;16.00;12.80;30.10;99.90;;;;;;5036080;28;8776;-66
2022/06/01 06:44:45;;;;;;;;;13.40;11.40;30.00;99.90;;;;;;5036501;28;8757;-67
2022/06/01 06:47:12;;;;;;;;;16.60;13.80;30.40;99.90;;;;;;5019045;28;9413;-67
2022/06/01 06:49:39;;;;;;;;;13.00;13.00;30.30;99.90;;;;;;5036067;28;8813;-67
2022/06/01 06:52:06;;;;;;;;;9.40;9.40;30.30;99.90;;;;;;5036630;28;8750;-67
2022/06/01 06:54:34;;;;;;;;;16.00;14.40;30.30;99.90;;;;;;5035782;28;8887;-67
2022/06/01 06:57:01;;;;;;;;;13.40;12.80;30.40;99.90;;;;;;5039857;28;8729;-66
2022/06/01 06:59:27;;;;;;;;;14.00;11.60;30.40;99.90;;;;;;5022795;28;8809;-67
2022/06/01 07:01:54;;;;;;;;;14.40;11.80;30.30;99.90;;;;;;5022461;28;8765;-67
2022/06/01 07:04:21;;;;;;;;;14.20;13.00;30.60;99.90;;;;;;5039995;28;9476;-67
2022/06/01 07:06:47;;;;;;;;;13.00;9.40;30.40;99.90;;;;;;5039342;28;8757;-67
2022/06/01 07:09:14;;;;;;;;;16.00;11.20;30.40;99.90;;;;;;5040367;28;8761;-67
2022/06/01 07:11:41;;;;;;;;;14.60;12.60;30.50;99.90;;;;;;5022425;28;8831;-67
2022/06/01 07:14:07;;;;;;;;;14.60;12.80;30.30;99.90;;;;;;5018869;28;8811;-68
2022/06/01 07:16:35;;;;;;;;;12.00;11.80;30.30;99.90;;;;;;5019976;28;8778;-67
2022/06/01 07:19:03;;;;;;;;;17.50;15.50;30.60;99.90;;;;;;5020946;28;8727;-67
2022/06/01 07:21:30;;;;;;;;;15.60;14.40;30.70;99.90;;;;;;5002888;28;8779;-67
2022/06/01 07:23:56;;;;;;;;;14.00;11.80;30.60;99.90;;;;;;5002587;28;8793;-67
2022/06/01 07:26:28;;;;;;;;;12.80;12.20;30.60;99.90;;;;;;5002307;28;8805;-67
2022/06/01 07:28:55;;;;;;;;;18.00;17.00;30.70;99.90;;;;;;5035918;28;8834;-67
2022/06/01 07:31:22;;;;;;;;;12.00;12.00;30.50;99.90;;;;;;5040131;28;9402;-67
2022/06/01 07:33:51;;;;;;;;;16.40;13.80;30.50;99.90;;;;;;5039364;28;9435;-67
2022/06/01 07:36:18;;;;;;;;;16.60;14.40;30.60;99.90;;;;;;5039544;28;8765;-66
2022/06/01 07:44:32;;;;;;;;;15.00;10.20;30.70;99.90;;;;;;5019875;28;8767;-67
2022/06/01 07:47:00;;;;;;;;;15.60;11.00;30.90;99.90;;;;;;5019485;28;8759;-68
2022/06/01 07:49:27;;;;;;;;;11.20;11.20;30.80;99.90;;;;;;5019397;28;8779;-67
2022/06/01 07:51:54;;;;;;;;;16.60;12.00;30.70;99.90;;;;;;5002635;28;8766;-67
2022/06/01 07:54:21;;;;;;;;;15.20;13.00;30.90;99.90;;;;;;5001450;28;9451;-67
2022/06/01 07:56:47;;;;;;;;;11.60;10.80;31.20;99.90;;;;;;5019053;28;8802;-67
2022/06/01 07:59:14;;;;;;;;;10.20;10.20;31.40;99.90;;;;;;5038343;28;8757;-68
2022/06/01 08:01:41;;;;;;;;;9.00;8.00;31.20;99.90;;;;;;5038822;28;8737;-67
2022/06/01 08:04:08;;;;;;;;;17.20;11.20;31.10;99.90;;;;;;5039071;28;8815;-67
2022/06/01 08:06:35;;;;;;;;;15.00;12.60;31.00;99.90;;;;;;5020877;28;8738;-67
2022/06/01 08:09:03;;;;;;;;;15.00;11.80;30.70;99.90;;;;;;5039300;28;8746;-67
2022/06/01 08:14:25;;;;;;;;;9.80;9.80;29.90;99.90;;;;;;4974977;28;8870;-67
2022/06/01 08:16:52;;;;;;;;;13.20;11.00;29.50;99.90;;;;;;5038283;28;8753;-67
2022/06/01 08:19:19;;;;;;;;;17.20;12.20;29.40;99.90;;;;;;5036693;28;8721;-67
2022/06/01 08:21:46;;;;;;;;;12.20;12.20;29.70;99.90;;;;;;5038023;28;8749;-68
2022/06/01 08:24:13;;;;;;;;;16.40;15.00;30.00;99.90;;;;;;5037984;28;8784;-68
2022/06/01 08:26:39;;;;;;;;;14.80;11.20;30.30;99.90;;;;;;5038444;28;9463;-67
2022/06/01 08:29:06;;;;;;;;;20.20;14.40;30.30;99.90;;;;;;5038361;28;8769;-68
2022/06/01 08:31:34;;;;;;;;;17.50;14.00;30.40;99.90;;;;;;5020399;28;8826;-68
2022/06/01 08:34:01;;;;;;;;;16.80;15.60;30.40;99.90;;;;;;5021693;28;9417;-68
2022/06/01 08:36:28;;;;;;;;;11.00;10.80;30.40;99.90;;;;;;5037725;28;8785;-68
2022/06/01 08:38:55;;;;;;;;;16.00;13.00;30.30;99.90;;;;;;5038425;28;8783;-68
2022/06/01 08:41:24;;;;;;;;;13.80;11.00;30.20;99.90;;;;;;5038482;28;8962;-67
2022/06/01 08:43:56;;;;;;;;;11.20;11.20;30.00;99.90;;;;;;5004567;28;8781;-68
2022/06/01 08:46:23;;;;;;;;;11.00;9.80;29.80;99.90;;;;;;5037447;28;8747;-67
2022/06/01 08:48:56;;;;;;;;;13.00;10.40;29.80;99.90;;;;;;5037371;28;8777;-68
2022/06/01 08:51:28;;;;;;;;;11.40;10.20;29.80;99.90;;;;;;5020146;28;8749;-67
2022/06/01 08:53:55;;;;;;;;;10.60;7.80;29.70;99.90;;;;;;5036769;28;8791;-68
2022/06/01 08:56:27;;;;;;;;;13.20;10.00;29.80;99.90;;;;;;5020197;28;8765;-67
2022/06/01 08:59:20;;;;;;;;;8.00;8.00;29.90;99.90;;;;;;5016236;28;9474;-68
2022/06/01 09:02:16;;;;;;;;;8.00;7.60;30.00;99.90;;;;;;5007504;28;8781;-68
2022/06/01 09:04:49;;;;;;;;;6.40;6.40;30.10;99.90;;;;;;4983027;28;8833;-68
2022/06/01 09:07:21;;;;;;;;;12.40;9.80;30.10;99.90;;;;;;5002308;28;8747;-68
2022/06/01 09:10:16;;;;;;;;;11.80;7.20;30.10;99.90;;;;;;5018317;28;8793;-68
2022/06/01 09:12:42;;;;;;;;;10.40;6.80;30.10;99.90;;;;;;5024067;28;8891;-68
2022/06/01 09:15:23;;;;;;;;;11.60;8.40;30.30;99.90;;;;;;5020299;28;8764;-68
2022/06/01 09:17:50;;;;;;;;;10.20;7.60;30.30;99.90;;;;;;5021197;28;8781;-68
2022/06/01 09:23:04;;;;;;;;;8.20;7.20;30.20;99.90;;;;;;5037784;28;8769;-69
2022/06/01 09:25:34;;;;;;;;;7.20;7.20;30.10;99.90;;;;;;5037253;28;8757;-67
2022/06/01 09:28:18;;;;;;;;;10.40;8.40;30.30;99.90;;;;;;5004591;28;8764;-68
2022/06/01 09:30:46;;;;;;;;;6.40;4.60;30.40;99.90;;;;;;5037800;28;8761;-68
2022/06/01 09:33:28;;;;;;;;;9.40;7.20;30.40;99.90;;;;;;5020260;28;8777;-68
2022/06/01 09:36:07;;;;;;;;;6.00;4.80;30.40;99.90;;;;;;5037005;28;8761;-68
2022/06/01 09:38:56;;;;;;;;;5.80;5.80;30.40;99.90;;;;;;4998418;28;8905;-68
2022/06/01 09:41:31;;;;;;;;;11.80;8.40;30.50;99.90;;;;;;4998216;28;8799;-68
2022/06/01 09:44:02;;;;;;;;;10.20;6.60;30.40;99.90;;;;;;4998209;28;8776;-68
2022/06/01 09:46:35;;;;;;;;;4.60;4.40;30.40;99.90;;;;;;4998209;28;8787;-67
2022/06/01 09:49:04;;;;;;;;;9.40;5.80;30.30;99.90;;;;;;4997718;28;8798;-68
2022/06/01 09:51:32;;;;;;;;;6.60;6.60;30.20;99.90;;;;;;4997368;28;8816;-67
2022/06/01 09:54:12;;;;;;;;;8.60;7.60;30.20;99.90;;;;;;4996703;28;9456;-68
2022/06/01 09:56:45;;;;;;;;;8.00;7.60;30.20;99.90;;;;;;4998048;28;8790;-68
2022/06/01 10:07:48;;;;;;;;;5.60;5.20;30.20;99.90;;;;;;5010801;28;8794;-68
2022/06/01 10:10:26;;;;;;;;;9.00;6.00;30.20;99.90;;;;;;4996823;28;8741;-68
2022/06/01 10:12:58;;;;;;;;;5.60;4.80;30.20;99.90;;;;;;4996469;28;8778;-67
2022/06/01 10:15:47;;;;;;;;;8.00;6.20;30.20;99.90;;;;;;4997891;28;8777;-68
2022/06/01 10:18:19;;;;;;;;;7.40;6.00;30.30;99.90;;;;;;4980350;28;8782;-68
2022/06/01 10:21:12;;;;;;;;;9.00;6.20;30.30;99.90;;;;;;4996913;28;8848;-68
2022/06/01 10:24:05;;;;;;;;;7.40;6.40;30.30;99.90;;;;;;4996062;28;9482;-67
2022/06/01 10:26:38;;;;;;;;;6.00;6.00;30.30;99.90;;;;;;5010266;28;9468;-67
2022/06/01 10:29:35;;;;;;;;;9.80;8.20;30.40;99.90;;;;;;4997493;28;8776;-68
2022/06/01 10:32:09;;;;;;;;;5.80;5.40;30.40;99.90;;;;;;4977245;28;8754;-68
2022/06/01 10:34:52;;;;;;;;;9.80;7.00;30.40;99.90;;;;;;4996171;28;8782;-67
2022/06/01 10:37:19;;;;;;;;;11.00;6.00;30.40;99.90;;;;;;5020727;28;8827;-67
2022/06/01 10:40:02;;;;;;;;;9.20;7.80;30.50;99.90;;;;;;5036926;28;8768;-68
2022/06/01 10:45:22;;;;;;;;;8.40;7.80;30.50;99.90;;;;;;5036538;28;8773;-68
2022/06/01 10:47:57;;;;;;;;;5.20;4.60;30.50;99.90;;;;;;5019273;28;8765;-68
2022/06/01 10:50:44;;;;;;;;;11.20;9.00;30.50;99.90;;;;;;5036422;28;8769;-68
2022/06/01 10:53:39;;;;;;;;;4.20;4.20;30.50;99.90;;;;;;5037265;28;8753;-69
2022/06/01 10:56:06;;;;;;;;;7.00;6.20;30.50;99.90;;;;;;5010412;28;8775;-68
2022/06/01 10:58:32;;;;;;;;;7.00;7.00;30.50;99.90;;;;;;5018826;28;9421;-68
2022/06/01 11:01:13;;;;;;;;;8.60;6.40;30.40;99.90;;;;;;5037240;28;8714;-68
2022/06/01 11:03:49;;;;;;;;;6.40;6.40;30.40;99.90;;;;;;5034616;28;8862;-68
2022/06/01 11:06:56;;;;;;;;;6.00;4.20;30.40;99.90;;;;;;5037477;28;8764;-68
2022/06/01 11:09:47;;;;;;;;;7.40;7.00;30.40;99.90;;;;;;5035872;28;8769;-67
2022/06/01 11:12:35;;;;;;;;;10.40;7.00;30.40;99.90;;;;;;5037368;28;8757;-68
2022/06/01 11:15:20;;;;;;;;;9.60;8.40;30.30;99.90;;;;;;5037244;28;8833;-68
2022/06/01 11:17:55;;;;;;;;;8.60;8.00;30.40;99.90;;;;;;5036863;28;8789;-68
2022/06/01 11:21:06;;;;;;;;;5.00;2.80;30.30;99.90;;;;;;5021118;28;8900;-67
2022/06/01 11:24:09;;;;;;;;;7.60;7.60;30.30;99.90;;;;;;5036258;28;8781;-68
2022/06/01 11:26:48;;;;;;;;;11.80;10.00;30.30;99.90;;;;;;5032051;28;8765;-67
2022/06/01 11:29:17;;;;;;;;;12.00;10.20;30.30;99.90;;;;;;5036192;28;9456;-68
2022/06/01 11:31:44;;;;;;;;;14.20;11.00;30.30;99.90;;;;;;5036159;28;8803;-67
2022/06/01 11:34:15;;;;;;;;;16.60;10.80;30.20;99.90;;;;;;5019717;28;8768;-68
2022/06/01 11:36:48;;;;;;;;;14.20;11.40;30.10;99.90;;;;;;4986436;28;10007;-68
2022/06/01 11:39:31;;;;;;;;;14.00;11.20;30.10;99.90;;;;;;4997063;28;8794;-68
2022/06/01 11:42:01;;;;;;;;;13.60;11.60;30.10;99.90;;;;;;5014025;28;8786;-68
2022/06/01 11:44:38;;;;;;;;;15.60;13.60;30.00;99.90;;;;;;4980686;28;8862;-67
2022/06/01 11:47:19;;;;;;;;;15.80;12.00;30.00;99.90;;;;;;4981492;28;8768;-68
2022/06/01 11:50:18;;;;;;;;;14.80;9.60;29.90;99.90;;;;;;4979943;28;9203;-68
2022/06/01 11:53:01;;;;;;;;;14.20;11.20;29.70;99.90;;;;;;4980764;28;8808;-68
2022/06/01 11:55:37;;;;;;;;;29.50;24.25;29.50;99.90;;;;;;4979733;28;9453;-67
2022/06/01 11:58:11;;;;;;;;;12.40;11.60;29.40;99.90;;;;;;4988604;28;8758;-67
2022/06/01 12:00:55;;;;;;;;;15.40;10.00;29.30;99.90;;;;;;4999921;28;8835;-68
2022/06/01 12:03:24;;;;;;;;;12.60;11.80;29.30;99.90;;;;;;5000020;28;8796;-67
2022/06/01 12:06:13;;;;;;;;;15.60;11.00;29.20;99.90;;;;;;4998398;28;8792;-68
2022/06/01 12:08:40;;;;;;;;;12.60;9.40;29.10;99.90;;;;;;4998895;28;8773;-68
2022/06/01 12:11:10;;;;;;;;;14.60;10.80;29.10;99.90;;;;;;5000033;28;8753;-68
2022/06/01 12:13:38;;;;;;;;;19.20;11.80;29.10;99.90;;;;;;4998275;28;8801;-67
2022/06/01 12:16:04;;;;;;;;;30.50;22.50;29.00;99.90;;;;;;5000493;28;8749;-68
2022/06/01 12:18:37;;;;;;;;;17.60;11.60;29.00;99.90;;;;;;4999768;28;8761;-68
2022/06/01 12:21:22;;;;;;;;;14.40;11.80;29.00;99.90;;;;;;5014856;28;8770;-68
2022/06/01 12:30:00;;;;;;;;;13.60;12.00;28.90;99.90;;;;;;4978710;28;8914;-68
2022/06/01 12:32:28;;;;;;;;;9.40;9.40;28.90;99.90;;;;;;4979019;28;8871;-68
2022/06/01 12:35:04;;;;;;;;;11.80;11.60;28.80;99.90;;;;;;4978657;28;8760;-68
2022/06/01 12:37:53;;;;;;;;;11.80;11.20;28.80;99.90;;;;;;4978605;28;8792;-67
2022/06/01 12:40:21;;;;;;;;;20.00;16.20;28.80;99.90;;;;;;4979204;28;8850;-67
2022/06/01 12:42:53;;;;;;;;;26.75;20.75;28.80;99.90;;;;;;4985319;28;8786;-68
2022/06/01 12:45:21;;;;;;;;;24.00;13.60;28.80;99.90;;;;;;5004546;28;8871;-67
2022/06/01 12:47:58;;;;;;;;;17.20;17.20;28.60;99.90;;;;;;4999688;28;8773;-68
2022/06/01 12:50:27;;;;;;;;;9.20;8.00;28.70;99.90;;;;;;4999175;28;8785;-68
2022/06/01 12:53:13;;;;;;;;;15.80;11.80;28.70;99.90;;;;;;4997113;28;8764;-68
2022/06/01 12:55:40;;;;;;;;;16.00;12.20;28.70;99.90;;;;;;4999633;28;8750;-68
2022/06/01 12:58:20;;;;;;;;;19.80;16.60;28.70;99.90;;;;;;5014647;28;8876;-68
2022/06/01 13:00:50;;;;;;;;;26.75;19.75;28.60;99.90;;;;;;4999472;28;8754;-68
2022/06/01 13:03:17;;;;;;;;;23.20;19.20;28.60;99.90;;;;;;4999098;28;8793;-68
2022/06/01 13:05:49;;;;;;;;;34.25;23.00;28.70;99.90;;;;;;4988691;28;8772;-68
2022/06/01 13:08:24;;;;;;;;;37.25;26.50;28.60;99.90;;;;;;4998657;28;8800;-68
2022/06/01 13:10:51;;;;;;;;;36.75;30.00;28.60;99.90;;;;;;4997757;28;8784;-68
2022/06/01 13:13:20;;;;;;;;;34.75;21.25;28.60;99.90;;;;;;4997636;28;8778;-67
2022/06/01 13:16:12;;;;;;;;;27.00;22.50;28.60;99.90;;;;;;4998739;28;8749;-68
2022/06/01 13:18:42;;;;;;;;;33.50;21.25;28.70;99.90;;;;;;4993858;28;9548;-68
2022/06/01 13:22:01;;;;;;;;;20.00;17.00;28.60;99.90;;;;;;4998453;28;8812;-68
2022/06/01 13:24:28;;;;;;;;;27.25;26.25;28.40;99.90;;;;;;4973451;28;8894;-68
2022/06/01 13:26:55;;;;;;;;;36.75;30.25;28.50;99.90;;;;;;4997405;28;8777;-68
2022/06/01 13:29:23;;;;;;;;;32.25;27.75;28.60;99.90;;;;;;4977700;28;8790;-68
2022/06/01 13:31:54;;;;;;;;;33.00;27.25;28.60;99.90;;;;;;4977787;28;8806;-68
2022/06/01 13:34:24;;;;;;;;;31.75;23.00;28.60;99.90;;;;;;4978725;28;8737;-67
2022/06/01 13:36:51;;;;;;;;;30.75;23.25;28.60;99.90;;;;;;4981371;28;8789;-68
2022/06/01 13:39:27;;;;;;;;;26.75;24.00;28.60;99.90;;;;;;4977422;28;8780;-64